createdAt,value
2023-05-13T00:00:44.653Z,13.93
2023-05-13T00:01:49.813Z,13.91
2023-05-13T00:02:53.472Z,13.89
2023-05-13T00:03:58.020Z,13.89
2023-05-13T00:05:01.702Z,13.88
2023-05-13T00:06:05.141Z,13.85
2023-05-13T00:07:08.813Z,13.82
2023-05-13T00:08:11.897Z,13.80
2023-05-13T00:09:15.406Z,13.75
2023-05-13T00:10:21.832Z,13.72
2023-05-13T00:11:26.803Z,13.74
2023-05-13T00:12:31.267Z,13.69
2023-05-13T00:13:35.526Z,13.65
2023-05-13T00:14:39.411Z,13.68
2023-05-13T00:15:43.121Z,13.68
2023-05-13T00:16:46.011Z,13.67
2023-05-13T00:17:49.689Z,13.67
2023-05-13T00:18:54.061Z,13.64
2023-05-13T00:19:59.016Z,13.63
2023-05-13T00:21:02.219Z,13.59
2023-05-13T00:22:05.831Z,13.52
2023-05-13T00:23:09.340Z,13.52
2023-05-13T00:24:13.662Z,13.52
2023-05-13T00:25:17.277Z,13.49
2023-05-13T00:26:20.783Z,13.48
2023-05-13T00:27:24.701Z,13.45
2023-05-13T00:28:30.196Z,13.41
2023-05-13T00:29:33.534Z,13.38
2023-05-13T00:30:37.514Z,13.35
2023-05-13T00:31:42.300Z,13.33
2023-05-13T00:32:46.959Z,13.30
2023-05-13T00:33:50.644Z,13.23
2023-05-13T00:34:56.656Z,13.19
2023-05-13T00:36:00.057Z,13.17
2023-05-13T00:37:03.463Z,13.15
2023-05-13T00:38:07.476Z,13.15
2023-05-13T00:39:12.020Z,13.20
2023-05-13T00:40:19.075Z,13.16
2023-05-13T00:41:24.885Z,13.22
2023-05-13T00:42:28.590Z,13.25
2023-05-13T00:43:32.443Z,13.28
2023-05-13T00:44:35.619Z,13.26
2023-05-13T00:45:39.557Z,13.24
2023-05-13T00:46:43.257Z,13.18
2023-05-13T00:47:47.580Z,13.17
2023-05-13T00:48:52.049Z,13.21
2023-05-13T00:49:54.733Z,13.23
2023-05-13T00:50:59.424Z,13.20
2023-05-13T00:52:02.948Z,13.23
2023-05-13T00:53:06.482Z,13.26
2023-05-13T00:54:09.568Z,13.20
2023-05-13T00:55:12.022Z,13.18
2023-05-13T00:56:17.081Z,13.15
2023-05-13T00:57:19.557Z,13.09
2023-05-13T00:58:23.529Z,13.05
2023-05-13T00:59:28.991Z,13.00
2023-05-13T01:00:36.947Z,13.01
2023-05-13T01:01:43.503Z,13.07
2023-05-13T01:02:51.932Z,13.06
2023-05-13T01:04:09.976Z,13.07
2023-05-13T01:05:17.447Z,13.01
2023-05-13T01:07:44.066Z,13.12
2023-05-13T01:08:48.513Z,12.96
2023-05-13T01:09:57.110Z,12.93
2023-05-13T01:11:04.591Z,12.90
2023-05-13T01:12:11.227Z,12.89
2023-05-13T01:13:15.380Z,12.88
2023-05-13T01:14:22.627Z,12.87
2023-05-13T01:15:28.958Z,12.83
2023-05-13T01:16:33.540Z,12.80
2023-05-13T01:17:44.662Z,12.67
2023-05-13T01:18:52.678Z,12.64
2023-05-13T01:19:58.331Z,12.55
2023-05-13T01:21:02.442Z,12.54
2023-05-13T01:22:07.426Z,12.54
2023-05-13T01:23:12.187Z,12.52
2023-05-13T01:24:16.217Z,12.48
2023-05-13T01:25:18.671Z,12.50
2023-05-13T01:26:25.582Z,12.47
2023-05-13T01:27:31.314Z,12.50
2023-05-13T01:28:35.246Z,12.51
2023-05-13T01:29:42.613Z,12.53
2023-05-13T01:30:48.936Z,12.50
2023-05-13T01:31:54.041Z,12.46
2023-05-13T01:33:02.040Z,12.42
2023-05-13T01:34:08.606Z,12.40
2023-05-13T01:35:11.731Z,12.38
2023-05-13T01:36:16.594Z,12.39
2023-05-13T01:37:20.518Z,12.34
2023-05-13T01:38:24.957Z,12.33
2023-05-13T01:39:32.575Z,12.32
2023-05-13T01:40:39.217Z,12.27
2023-05-13T01:41:43.521Z,12.18
2023-05-13T01:42:47.236Z,12.18
2023-05-13T01:43:51.357Z,12.13
2023-05-13T01:44:55.831Z,12.05
2023-05-13T01:46:01.128Z,12.03
2023-05-13T01:47:08.886Z,12.02
2023-05-13T01:48:15.093Z,11.99
2023-05-13T01:49:20.370Z,11.91
2023-05-13T01:50:23.839Z,12.01
2023-05-13T01:51:30.770Z,11.95
2023-05-13T01:52:34.131Z,11.97
2023-05-13T01:53:37.948Z,11.97
2023-05-13T01:54:42.982Z,12.02
2023-05-13T01:55:48.307Z,11.99
2023-05-13T01:56:53.072Z,12.02
2023-05-13T01:57:56.461Z,12.04
2023-05-13T01:58:59.844Z,12.05
2023-05-13T02:00:04.201Z,12.02
2023-05-13T02:01:09.480Z,12.00
2023-05-13T02:02:12.927Z,12.01
2023-05-13T02:03:15.923Z,11.97
2023-05-13T02:04:19.466Z,11.95
2023-05-13T02:05:22.672Z,11.95
2023-05-13T02:06:29.223Z,11.92
2023-05-13T02:07:34.111Z,11.93
2023-05-13T02:08:36.851Z,11.64
2023-05-13T02:09:42.311Z,11.55
2023-05-13T02:10:45.835Z,11.44
2023-05-13T02:11:49.551Z,11.31
2023-05-13T02:12:55.245Z,11.24
2023-05-13T02:13:58.741Z,11.27
2023-05-13T02:15:03.244Z,11.31
2023-05-13T02:16:08.441Z,11.32
2023-05-13T02:17:13.612Z,11.31
2023-05-13T02:18:15.901Z,11.30
2023-05-13T02:19:19.297Z,11.35
2023-05-13T02:20:25.210Z,11.38
2023-05-13T02:21:28.610Z,11.36
2023-05-13T02:22:31.071Z,11.45
2023-05-13T02:23:34.884Z,11.48
2023-05-13T02:24:43.555Z,11.45
2023-05-13T02:25:46.287Z,11.57
2023-05-13T02:26:49.586Z,11.57
2023-05-13T02:27:53.727Z,11.63
2023-05-13T02:28:57.224Z,11.71
2023-05-13T02:30:01.999Z,11.74
2023-05-13T02:31:04.872Z,11.73
2023-05-13T02:32:11.707Z,11.77
2023-05-13T02:33:15.305Z,11.86
2023-05-13T02:34:19.655Z,11.94
2023-05-13T02:35:27.459Z,11.97
2023-05-13T02:36:30.925Z,12.01
2023-05-13T02:37:34.692Z,11.99
2023-05-13T02:38:39.984Z,12.02
2023-05-13T02:39:43.867Z,12.00
2023-05-13T02:40:48.723Z,12.07
2023-05-13T02:41:55.154Z,12.15
2023-05-13T02:42:58.869Z,12.27
2023-05-13T02:44:05.032Z,12.38
2023-05-13T02:45:09.430Z,12.31
2023-05-13T02:46:14.568Z,12.37
2023-05-13T02:47:25.325Z,12.54
2023-05-13T02:48:29.242Z,12.62
2023-05-13T02:49:32.031Z,12.57
2023-05-13T02:50:35.773Z,12.58
2023-05-13T02:51:38.973Z,12.61
2023-05-13T02:52:45.455Z,12.88
2023-05-13T02:53:48.866Z,13.28
2023-05-13T02:54:53.124Z,13.31
2023-05-13T02:55:58.365Z,13.22
2023-05-13T02:57:01.566Z,13.13
2023-05-13T02:58:05.370Z,13.03
2023-05-13T02:59:08.255Z,13.20
2023-05-13T03:00:12.655Z,13.22
2023-05-13T03:01:15.393Z,13.01
2023-05-13T03:02:19.762Z,13.06
2023-05-13T03:03:24.200Z,13.00
2023-05-13T03:04:28.026Z,13.13
2023-05-13T03:05:31.236Z,13.21
2023-05-13T03:06:34.153Z,13.32
2023-05-13T03:07:38.431Z,13.25
2023-05-13T03:08:44.509Z,13.42
2023-05-13T03:09:51.794Z,13.65
2023-05-13T03:10:57.054Z,13.94
2023-05-13T03:12:00.290Z,14.18
2023-05-13T03:13:02.718Z,14.12
2023-05-13T03:14:06.357Z,13.88
2023-05-13T03:15:11.570Z,13.69
2023-05-13T03:16:15.128Z,13.56
2023-05-13T03:17:18.751Z,13.50
2023-05-13T03:18:22.465Z,13.46
2023-05-13T03:19:25.719Z,13.56
2023-05-13T03:20:28.491Z,13.80
2023-05-13T03:21:33.033Z,13.59
2023-05-13T03:22:38.992Z,13.45
2023-05-13T03:23:41.883Z,13.46
2023-05-13T03:24:44.930Z,13.36
2023-05-13T03:25:50.511Z,13.32
2023-05-13T03:26:54.271Z,13.31
2023-05-13T03:27:56.574Z,13.30
2023-05-13T03:29:04.363Z,13.30
2023-05-13T03:30:10.777Z,13.30
2023-05-13T03:31:16.309Z,13.31
2023-05-13T03:32:19.079Z,13.33
2023-05-13T03:33:23.388Z,13.42
2023-05-13T03:34:26.795Z,13.39
2023-05-13T03:35:29.207Z,13.51
2023-05-13T03:36:33.245Z,13.50
2023-05-13T03:37:36.786Z,13.51
2023-05-13T03:38:41.157Z,13.64
2023-05-13T03:39:45.148Z,13.70
2023-05-13T03:40:48.454Z,13.68
2023-05-13T03:41:51.859Z,13.73
2023-05-13T03:42:54.312Z,13.76
2023-05-13T03:43:59.178Z,13.76
2023-05-13T03:45:02.789Z,13.75
2023-05-13T03:46:06.500Z,13.89
2023-05-13T03:47:10.200Z,13.96
2023-05-13T03:48:14.654Z,13.99
2023-05-13T03:49:18.998Z,14.04
2023-05-13T03:50:23.683Z,14.14
2023-05-13T03:51:28.198Z,14.20
2023-05-13T03:52:31.490Z,14.14
2023-05-13T03:53:37.091Z,14.25
2023-05-13T03:54:40.694Z,14.33
2023-05-13T03:55:43.996Z,14.41
2023-05-13T03:56:47.922Z,14.44
2023-05-13T03:57:51.640Z,14.42
2023-05-13T03:58:55.426Z,14.46
2023-05-13T03:59:57.712Z,14.60
2023-05-13T04:01:02.046Z,14.71
2023-05-13T04:02:06.005Z,14.79
2023-05-13T04:03:10.190Z,14.85
2023-05-13T04:04:13.580Z,14.89
2023-05-13T04:05:17.268Z,14.97
2023-05-13T04:06:22.488Z,14.89
2023-05-13T04:07:26.319Z,15.07
2023-05-13T04:08:29.716Z,15.35
2023-05-13T04:09:33.913Z,16.22
2023-05-13T04:10:39.121Z,17.30
2023-05-13T04:11:44.769Z,17.55
2023-05-13T04:12:48.845Z,17.52
2023-05-13T04:13:54.037Z,17.42
2023-05-13T04:14:56.326Z,17.42
2023-05-13T04:16:01.138Z,17.46
2023-05-13T04:17:04.717Z,17.70
2023-05-13T04:18:07.533Z,18.09
2023-05-13T04:19:12.294Z,18.90
2023-05-13T04:20:15.374Z,19.56
2023-05-13T04:21:19.827Z,19.83
2023-05-13T04:22:25.098Z,20.28
2023-05-13T04:23:28.603Z,21.28
2023-05-13T04:24:33.049Z,21.75
2023-05-13T04:25:38.082Z,22.32
2023-05-13T04:26:41.761Z,23.26
2023-05-13T04:27:49.490Z,24.26
2023-05-13T04:28:57.610Z,25.28
2023-05-13T04:30:03.940Z,26.41
2023-05-13T04:31:09.744Z,27.30
2023-05-13T04:32:16.519Z,27.93
2023-05-13T04:33:20.934Z,28.07
2023-05-13T04:34:25.208Z,28.05
2023-05-13T04:35:29.837Z,28.66
2023-05-13T04:36:35.100Z,28.57
2023-05-13T04:37:40.513Z,28.78
2023-05-13T04:38:45.974Z,28.98
2023-05-13T04:39:53.032Z,29.44
2023-05-13T04:41:00.354Z,29.22
2023-05-13T04:42:12.253Z,29.20
2023-05-13T04:43:16.557Z,30.11
2023-05-13T04:44:23.015Z,29.49
2023-05-13T04:45:27.908Z,29.42
2023-05-13T04:46:33.311Z,29.72
2023-05-13T04:47:38.778Z,29.21
2023-05-13T04:48:42.481Z,29.55
2023-05-13T04:49:46.719Z,29.79
2023-05-13T04:51:00.880Z,29.67
2023-05-13T04:52:06.519Z,29.82
2023-05-13T04:53:10.529Z,29.86
2023-05-13T04:54:14.042Z,29.83
2023-05-13T04:55:16.420Z,30.35
2023-05-13T04:56:19.545Z,30.84
2023-05-13T04:57:22.960Z,30.91
2023-05-13T04:58:26.978Z,30.48
2023-05-13T04:59:30.581Z,30.01
2023-05-13T05:00:35.365Z,30.02
2023-05-13T05:01:38.478Z,30.47
2023-05-13T05:02:44.262Z,30.54
2023-05-13T05:03:47.556Z,31.57
2023-05-13T05:04:50.740Z,32.00
2023-05-13T05:05:53.818Z,31.34
2023-05-13T05:06:59.823Z,31.63
2023-05-13T05:08:04.873Z,32.03
2023-05-13T05:09:08.504Z,32.24
2023-05-13T05:10:17.087Z,32.46
2023-05-13T05:11:22.191Z,33.26
2023-05-13T05:12:26.324Z,32.89
2023-05-13T05:13:29.839Z,32.74
2023-05-13T05:14:32.071Z,32.29
2023-05-13T05:15:36.477Z,32.97
2023-05-13T05:16:41.586Z,33.22
2023-05-13T05:17:46.110Z,33.61
2023-05-13T05:18:49.918Z,34.01
2023-05-13T05:19:54.627Z,33.80
2023-05-13T05:20:58.877Z,33.90
2023-05-13T05:22:02.161Z,34.16
2023-05-13T05:23:06.291Z,34.61
2023-05-13T05:24:09.836Z,35.29
2023-05-13T05:25:15.069Z,35.70
2023-05-13T05:26:18.477Z,34.68
2023-05-13T05:27:21.660Z,33.82
2023-05-13T05:28:25.067Z,33.79
2023-05-13T05:29:28.793Z,33.56
2023-05-13T05:30:37.927Z,33.11
2023-05-13T05:31:41.847Z,33.69
2023-05-13T05:32:47.707Z,34.13
2023-05-13T05:33:57.743Z,35.13
2023-05-13T05:35:03.933Z,35.59
2023-05-13T05:36:09.524Z,35.70
2023-05-13T05:37:12.003Z,35.96
2023-05-13T05:38:14.508Z,36.04
2023-05-13T05:39:18.187Z,35.03
2023-05-13T05:40:22.817Z,35.04
2023-05-13T05:41:28.825Z,34.30
2023-05-13T05:42:36.012Z,33.72
2023-05-13T05:43:39.195Z,32.87
2023-05-13T05:44:42.869Z,33.76
2023-05-13T05:45:45.525Z,34.62
2023-05-13T05:46:51.905Z,35.20
2023-05-13T05:47:56.950Z,35.67
2023-05-13T05:49:00.703Z,35.37
2023-05-13T05:50:04.296Z,36.10
2023-05-13T05:51:06.662Z,35.71
2023-05-13T05:52:13.557Z,35.39
2023-05-13T05:53:17.236Z,35.63
2023-05-13T05:54:20.731Z,36.37
2023-05-13T05:55:24.756Z,35.84
2023-05-13T05:56:28.694Z,35.86
2023-05-13T05:57:32.118Z,35.20
2023-05-13T05:58:36.005Z,34.54
2023-05-13T05:59:38.357Z,34.60
2023-05-13T06:00:41.632Z,35.00
2023-05-13T06:01:44.425Z,34.35
2023-05-13T06:02:49.490Z,33.87
2023-05-13T06:03:55.142Z,32.89
2023-05-13T06:04:58.911Z,31.96
2023-05-13T06:06:02.416Z,31.67
2023-05-13T06:07:09.955Z,31.17
2023-05-13T06:08:15.099Z,31.61
2023-05-13T06:09:21.532Z,31.64
2023-05-13T06:10:27.822Z,30.62
2023-05-13T06:11:31.748Z,30.27
2023-05-13T06:12:42.151Z,30.33
2023-05-13T06:13:45.643Z,30.93
2023-05-13T06:14:48.315Z,31.28
2023-05-13T06:15:52.376Z,31.86
2023-05-13T06:16:57.424Z,31.85
2023-05-13T06:18:00.932Z,32.03
2023-05-13T06:19:05.919Z,31.88
2023-05-13T06:20:10.222Z,32.30
2023-05-13T06:21:12.900Z,32.73
2023-05-13T06:22:15.100Z,33.52
2023-05-13T06:23:21.047Z,34.21
2023-05-13T06:24:24.458Z,34.68
2023-05-13T06:25:27.744Z,35.66
2023-05-13T06:26:32.300Z,34.99
2023-05-13T06:27:36.854Z,34.48
2023-05-13T06:28:39.204Z,35.08
2023-05-13T06:29:42.718Z,35.11
2023-05-13T06:30:46.522Z,34.47
2023-05-13T06:31:50.191Z,34.87
2023-05-13T06:33:01.544Z,35.03
2023-05-13T06:34:03.670Z,35.41
2023-05-13T06:35:11.470Z,35.14
2023-05-13T06:36:16.843Z,35.71
2023-05-13T06:37:19.634Z,36.41
2023-05-13T06:38:23.192Z,35.98
2023-05-13T06:39:28.698Z,36.36
2023-05-13T06:40:34.994Z,35.70
2023-05-13T06:42:52.706Z,36.66
2023-05-13T06:43:57.930Z,37.08
2023-05-13T06:45:06.186Z,37.91
2023-05-13T06:46:09.440Z,38.07
2023-05-13T06:47:16.217Z,38.24
2023-05-13T06:48:21.740Z,38.18
2023-05-13T06:49:26.954Z,37.11
2023-05-13T06:50:30.984Z,36.53
2023-05-13T06:51:35.735Z,36.47
2023-05-13T06:52:41.725Z,36.54
2023-05-13T06:53:44.200Z,36.13
2023-05-13T06:54:49.911Z,36.75
2023-05-13T06:55:52.463Z,37.26
2023-05-13T06:56:59.861Z,37.18
2023-05-13T06:58:03.457Z,37.47
2023-05-13T06:59:06.965Z,37.26
2023-05-13T07:00:11.321Z,37.35
2023-05-13T07:01:14.763Z,37.55
2023-05-13T07:02:18.090Z,38.27
2023-05-13T07:03:21.883Z,38.78
2023-05-13T07:04:25.415Z,37.73
2023-05-13T07:05:29.032Z,37.31
2023-05-13T07:06:32.534Z,37.25
2023-05-13T07:07:36.044Z,36.49
2023-05-13T07:08:40.378Z,36.38
2023-05-13T07:09:43.746Z,36.84
2023-05-13T07:10:47.097Z,36.56
2023-05-13T07:11:50.807Z,37.18
2023-05-13T07:12:54.293Z,37.93
2023-05-13T07:13:56.649Z,38.26
2023-05-13T07:15:00.049Z,38.24
2023-05-13T07:16:03.763Z,38.09
2023-05-13T07:17:07.949Z,38.25
2023-05-13T07:18:13.291Z,37.95
2023-05-13T07:19:16.968Z,38.25
2023-05-13T07:20:22.999Z,37.38
2023-05-13T07:21:26.501Z,36.97
2023-05-13T07:22:29.912Z,37.33
2023-05-13T07:23:35.249Z,37.98
2023-05-13T07:24:38.379Z,38.09
2023-05-13T07:25:44.922Z,37.55
2023-05-13T07:26:48.944Z,36.94
2023-05-13T07:27:52.875Z,36.71
2023-05-13T07:28:56.974Z,36.73
2023-05-13T07:30:00.538Z,37.22
2023-05-13T07:31:05.029Z,36.13
2023-05-13T07:32:09.576Z,36.37
2023-05-13T07:33:13.360Z,35.47
2023-05-13T07:34:17.036Z,35.92
2023-05-13T07:35:20.367Z,36.63
2023-05-13T07:36:24.873Z,36.60
2023-05-13T07:37:27.228Z,35.93
2023-05-13T07:38:30.408Z,34.97
2023-05-13T07:39:33.599Z,34.56
2023-05-13T07:40:36.909Z,34.10
2023-05-13T07:41:40.720Z,34.00
2023-05-13T07:42:43.910Z,33.96
2023-05-13T07:43:46.605Z,34.00
2023-05-13T07:44:49.996Z,33.76
2023-05-13T07:45:53.497Z,33.90
2023-05-13T07:47:00.307Z,34.07
2023-05-13T07:48:03.300Z,34.11
2023-05-13T07:49:09.749Z,34.21
2023-05-13T07:50:13.472Z,33.87
2023-05-13T07:51:24.742Z,33.53
2023-05-13T07:52:29.927Z,33.06
2023-05-13T07:53:32.449Z,32.61
2023-05-13T07:54:38.566Z,32.71
2023-05-13T07:55:42.278Z,33.24
2023-05-13T07:56:47.453Z,33.88
2023-05-13T07:57:50.847Z,33.83
2023-05-13T07:58:54.780Z,32.96
2023-05-13T07:59:58.506Z,33.22
2023-05-13T08:01:01.365Z,33.08
2023-05-13T08:02:07.825Z,32.69
2023-05-13T08:03:11.514Z,32.03
2023-05-13T08:04:15.184Z,31.39
2023-05-13T08:05:19.800Z,31.92
2023-05-13T08:06:23.489Z,32.24
2023-05-13T08:07:27.196Z,32.22
2023-05-13T08:08:31.548Z,32.70
2023-05-13T08:09:37.336Z,32.60
2023-05-13T08:10:40.737Z,32.20
2023-05-13T08:11:44.977Z,32.08
2023-05-13T08:12:50.479Z,32.15
2023-05-13T08:13:54.190Z,31.78
2023-05-13T08:14:57.474Z,31.08
2023-05-13T08:16:02.429Z,30.89
2023-05-13T08:17:08.936Z,31.12
2023-05-13T08:18:15.138Z,30.76
2023-05-13T08:19:18.685Z,30.86
2023-05-13T08:20:23.467Z,31.19
2023-05-13T08:21:25.790Z,30.95
2023-05-13T08:22:32.235Z,31.05
2023-05-13T08:23:44.852Z,31.13
2023-05-13T08:24:44.847Z,31.34
2023-05-13T08:25:48.716Z,31.39
2023-05-13T08:26:52.224Z,31.50
2023-05-13T08:27:55.516Z,30.98
2023-05-13T08:28:58.918Z,30.91
2023-05-13T08:30:01.267Z,31.41
2023-05-13T08:31:04.579Z,30.60
2023-05-13T08:32:08.325Z,30.85
2023-05-13T08:33:11.891Z,30.89
2023-05-13T08:34:15.504Z,31.33
2023-05-13T08:35:18.718Z,31.58
2023-05-13T08:36:29.744Z,31.87
2023-05-13T08:37:32.389Z,31.99
2023-05-13T08:38:35.593Z,32.08
2023-05-13T08:39:38.064Z,31.77
2023-05-13T08:40:42.073Z,31.62
2023-05-13T08:41:46.979Z,31.56
2023-05-13T08:42:51.592Z,32.15
2023-05-13T08:43:57.701Z,31.70
2023-05-13T08:45:02.256Z,32.18
2023-05-13T08:46:07.435Z,31.99
2023-05-13T08:47:15.666Z,31.78
2023-05-13T08:48:20.304Z,31.86
2023-05-13T08:49:25.663Z,32.15
2023-05-13T08:50:31.478Z,31.39
2023-05-13T08:51:34.877Z,31.90
2023-05-13T08:52:40.456Z,31.91
2023-05-13T08:53:45.239Z,31.89
2023-05-13T08:54:49.466Z,32.18
2023-05-13T08:55:54.166Z,31.88
2023-05-13T08:56:57.511Z,31.61
2023-05-13T08:58:02.259Z,30.90
2023-05-13T08:59:09.220Z,30.76
2023-05-13T09:00:21.224Z,31.04
2023-05-13T09:01:27.832Z,30.91
2023-05-13T09:02:31.355Z,31.08
2023-05-13T09:03:34.739Z,30.94
2023-05-13T09:04:39.930Z,30.91
2023-05-13T09:05:46.344Z,31.03
2023-05-13T09:06:49.517Z,30.85
2023-05-13T09:07:53.032Z,30.84
2023-05-13T09:08:56.957Z,30.85
2023-05-13T09:10:01.295Z,30.83
2023-05-13T09:11:04.644Z,31.51
2023-05-13T09:12:07.492Z,31.62
2023-05-13T09:13:13.504Z,31.24
2023-05-13T09:14:21.908Z,30.77
2023-05-13T09:15:27.666Z,30.99
2023-05-13T09:16:32.385Z,31.31
2023-05-13T09:17:38.057Z,30.92
2023-05-13T09:18:43.715Z,30.74
2023-05-13T09:19:46.562Z,31.01
2023-05-13T09:20:51.296Z,30.63
2023-05-13T09:21:55.008Z,30.75
2023-05-13T09:23:02.391Z,30.82
2023-05-13T09:24:08.654Z,30.29
2023-05-13T09:25:12.409Z,29.94
2023-05-13T09:26:32.934Z,29.46
2023-05-13T09:27:44.318Z,30.02
2023-05-13T09:28:54.621Z,30.68
2023-05-13T09:30:02.662Z,30.76
2023-05-13T09:31:05.937Z,31.15
2023-05-13T09:32:10.640Z,31.17
2023-05-13T09:33:23.421Z,30.49
2023-05-13T09:34:35.853Z,30.44
2023-05-13T09:35:40.680Z,30.71
2023-05-13T09:36:44.276Z,30.89
2023-05-13T09:37:48.616Z,31.35
2023-05-13T09:38:55.608Z,30.87
2023-05-13T09:39:58.916Z,30.21
2023-05-13T09:41:05.178Z,29.86
2023-05-13T09:42:18.192Z,29.52
2023-05-13T09:43:22.650Z,29.87
2023-05-13T09:44:25.628Z,29.65
2023-05-13T09:45:30.008Z,30.05
2023-05-13T09:46:33.944Z,30.08
2023-05-13T09:47:41.204Z,30.00
2023-05-13T09:48:44.758Z,29.86
2023-05-13T09:49:50.153Z,30.28
2023-05-13T09:50:58.187Z,30.42
2023-05-13T09:52:04.271Z,30.28
2023-05-13T09:53:17.036Z,29.77
2023-05-13T09:54:20.998Z,29.44
2023-05-13T09:55:24.492Z,29.96
2023-05-13T09:56:30.403Z,30.35
2023-05-13T09:57:33.542Z,30.50
2023-05-13T09:58:35.844Z,30.51
2023-05-13T09:59:39.230Z,30.47
2023-05-13T10:00:44.547Z,30.38
2023-05-13T10:01:47.434Z,30.34
2023-05-13T10:02:52.550Z,30.19
2023-05-13T10:04:01.464Z,30.33
2023-05-13T10:05:02.673Z,30.72
2023-05-13T10:06:06.540Z,29.38
2023-05-13T10:07:10.572Z,29.82
2023-05-13T10:08:14.285Z,29.81
2023-05-13T10:09:20.312Z,30.40
2023-05-13T10:10:23.889Z,30.67
2023-05-13T10:11:28.453Z,30.65
2023-05-13T10:12:32.376Z,30.93
2023-05-13T10:13:36.425Z,31.12
2023-05-13T10:14:40.854Z,30.75
2023-05-13T10:15:53.025Z,30.72
2023-05-13T10:16:58.835Z,30.47
2023-05-13T10:18:05.922Z,30.78
2023-05-13T10:19:09.296Z,30.96
2023-05-13T10:20:13.309Z,30.85
2023-05-13T10:21:18.217Z,30.84
2023-05-13T10:22:32.543Z,31.19
2023-05-13T10:23:35.626Z,31.17
2023-05-13T10:24:39.863Z,30.55
2023-05-13T10:25:44.520Z,30.28
2023-05-13T10:26:52.557Z,30.36
2023-05-13T10:27:56.827Z,30.21
2023-05-13T10:28:59.523Z,29.35
2023-05-13T10:30:03.883Z,29.00
2023-05-13T10:31:07.477Z,28.61
2023-05-13T10:32:12.624Z,28.43
2023-05-13T10:33:16.539Z,28.32
2023-05-13T10:34:21.325Z,27.94
2023-05-13T10:35:26.453Z,27.76
2023-05-13T10:36:32.094Z,27.68
2023-05-13T10:37:53.460Z,27.35
2023-05-13T10:39:01.901Z,27.29
2023-05-13T10:40:14.155Z,27.94
2023-05-13T10:41:19.215Z,28.46
2023-05-13T10:42:28.265Z,28.62
2023-05-13T10:43:36.906Z,28.05
2023-05-13T10:44:41.751Z,27.88
2023-05-13T10:45:48.668Z,27.57
2023-05-13T10:46:53.315Z,27.46
2023-05-13T10:47:57.377Z,27.85
2023-05-13T10:49:01.825Z,28.40
2023-05-13T10:50:06.474Z,28.51
2023-05-13T10:51:10.844Z,28.52
2023-05-13T10:52:13.909Z,28.32
2023-05-13T10:53:25.241Z,27.92
2023-05-13T10:54:30.540Z,27.65
2023-05-13T10:55:36.545Z,27.16
2023-05-13T10:56:40.361Z,27.39
2023-05-13T10:58:06.936Z,27.25
2023-05-13T10:59:12.017Z,27.06
2023-05-13T11:00:16.893Z,27.06
2023-05-13T11:01:21.959Z,26.81
2023-05-13T11:02:28.247Z,27.23
2023-05-13T11:03:32.000Z,27.51
2023-05-13T11:04:37.471Z,27.60
2023-05-13T11:05:41.292Z,27.73
2023-05-13T11:06:48.181Z,27.80
2023-05-13T11:07:58.448Z,28.01
2023-05-13T11:09:02.044Z,28.33
2023-05-13T11:10:13.289Z,28.49
2023-05-13T11:11:23.469Z,27.68
2023-05-13T11:12:27.292Z,27.94
2023-05-13T11:13:32.350Z,27.84
2023-05-13T11:14:35.708Z,27.43
2023-05-13T11:15:46.737Z,27.24
2023-05-13T11:17:02.320Z,27.34
2023-05-13T11:18:05.105Z,27.65
2023-05-13T11:19:11.202Z,27.64
2023-05-13T11:20:22.619Z,27.86
2023-05-13T11:21:34.180Z,27.83
2023-05-13T11:22:37.911Z,27.99
2023-05-13T11:24:00.937Z,27.71
2023-05-13T11:25:12.598Z,27.77
2023-05-13T11:26:20.591Z,27.93
2023-05-13T11:27:24.294Z,28.54
2023-05-13T11:28:44.822Z,29.02
2023-05-13T11:29:53.976Z,29.02
2023-05-13T11:31:00.860Z,28.25
2023-05-13T11:32:05.421Z,28.27
2023-05-13T11:33:12.847Z,28.46
2023-05-13T11:34:17.752Z,28.71
2023-05-13T11:35:22.242Z,28.86
2023-05-13T11:36:27.419Z,28.54
2023-05-13T11:37:32.904Z,28.77
2023-05-13T11:38:36.431Z,28.65
2023-05-13T11:39:41.212Z,28.56
2023-05-13T11:40:48.343Z,28.80
2023-05-13T11:41:53.006Z,28.72
2023-05-13T11:42:55.775Z,28.13
2023-05-13T11:43:59.181Z,27.88
2023-05-13T11:45:05.339Z,27.77
2023-05-13T11:46:10.821Z,27.71
2023-05-13T11:47:16.093Z,27.54
2023-05-13T11:48:20.929Z,27.49
2023-05-13T11:49:44.593Z,27.30
2023-05-13T11:50:49.976Z,27.21
2023-05-13T11:51:53.729Z,26.96
2023-05-13T11:52:58.347Z,26.84
2023-05-13T11:54:02.787Z,26.98
2023-05-13T11:55:07.174Z,26.98
2023-05-13T11:56:14.849Z,26.80
2023-05-13T11:57:20.927Z,26.52
2023-05-13T11:58:23.910Z,26.42
2023-05-13T11:59:35.754Z,26.25
2023-05-13T12:00:34.772Z,26.37
2023-05-13T12:01:39.240Z,26.44
2023-05-13T12:02:46.663Z,26.26
2023-05-13T12:03:50.527Z,26.33
2023-05-13T12:04:54.232Z,26.16
2023-05-13T12:06:02.859Z,25.98
2023-05-13T12:07:06.259Z,26.22
2023-05-13T12:08:11.956Z,26.42
2023-05-13T12:09:15.296Z,26.46
2023-05-13T12:10:17.889Z,26.15
2023-05-13T12:11:24.568Z,26.30
2023-05-13T12:12:27.991Z,26.14
2023-05-13T12:13:31.255Z,26.09
2023-05-13T12:14:33.928Z,26.10
2023-05-13T12:15:37.323Z,26.12
2023-05-13T12:16:42.544Z,26.01
2023-05-13T12:17:49.187Z,26.05
2023-05-13T12:19:01.171Z,26.17
2023-05-13T12:20:15.372Z,26.05
2023-05-13T12:21:20.131Z,26.16
2023-05-13T12:22:23.625Z,26.27
2023-05-13T12:23:26.842Z,26.27
2023-05-13T12:24:32.115Z,26.37
2023-05-13T12:25:47.311Z,26.36
2023-05-13T12:26:50.080Z,26.36
2023-05-13T12:27:53.386Z,26.55
2023-05-13T12:29:00.790Z,26.63
2023-05-13T12:30:06.372Z,26.66
2023-05-13T12:31:14.696Z,26.72
2023-05-13T12:32:18.044Z,26.69
2023-05-13T12:33:22.173Z,26.66
2023-05-13T12:34:34.557Z,26.76
2023-05-13T12:35:38.072Z,26.57
2023-05-13T12:36:41.849Z,26.49
2023-05-13T12:37:45.290Z,26.47
2023-05-13T12:39:01.854Z,26.55
2023-05-13T12:40:15.219Z,26.61
2023-05-13T12:41:20.146Z,26.73
2023-05-13T12:42:24.795Z,26.73
2023-05-13T12:43:28.611Z,26.88
2023-05-13T12:44:32.122Z,27.08
2023-05-13T12:45:34.884Z,27.04
2023-05-13T12:46:41.670Z,26.95
2023-05-13T12:47:49.283Z,26.98
2023-05-13T12:48:53.512Z,27.22
2023-05-13T12:49:58.713Z,27.42
2023-05-13T12:51:04.941Z,27.49
2023-05-13T12:52:08.466Z,27.61
2023-05-13T12:53:11.671Z,27.71
2023-05-13T12:54:15.175Z,27.87
2023-05-13T12:55:17.518Z,27.71
2023-05-13T12:56:23.831Z,27.46
2023-05-13T12:57:27.130Z,27.57
2023-05-13T12:58:29.642Z,27.66
2023-05-13T12:59:33.294Z,27.52
2023-05-13T13:00:36.748Z,27.51
2023-05-13T13:01:40.481Z,27.57
2023-05-13T13:02:44.299Z,27.69
2023-05-13T13:03:46.829Z,27.29
2023-05-13T13:04:52.399Z,27.24
2023-05-13T13:05:57.675Z,26.54
2023-05-13T13:07:00.446Z,26.82
2023-05-13T13:08:04.895Z,26.99
2023-05-13T13:09:08.400Z,27.10
2023-05-13T13:10:14.925Z,26.99
2023-05-13T13:11:23.794Z,26.94
2023-05-13T13:12:27.471Z,26.82
2023-05-13T13:13:30.782Z,26.83
2023-05-13T13:14:33.976Z,26.62
2023-05-13T13:15:37.380Z,26.48
2023-05-13T13:16:40.956Z,26.38
2023-05-13T13:17:44.035Z,26.54
2023-05-13T13:18:47.084Z,26.58
2023-05-13T13:19:51.418Z,26.41
2023-05-13T13:20:55.253Z,26.50
2023-05-13T13:22:00.058Z,26.43
2023-05-13T13:23:03.308Z,26.10
2023-05-13T13:24:06.680Z,25.72
2023-05-13T13:25:11.740Z,25.29
2023-05-13T13:26:16.388Z,24.67
2023-05-13T13:27:20.206Z,24.75
2023-05-13T13:28:23.596Z,24.71
2023-05-13T13:29:26.894Z,24.51
2023-05-13T13:30:30.932Z,24.51
2023-05-13T13:31:35.435Z,24.62
2023-05-13T13:32:41.011Z,24.64
2023-05-13T13:33:44.315Z,24.54
2023-05-13T13:34:48.084Z,24.48
2023-05-13T13:35:51.916Z,24.47
2023-05-13T13:36:54.570Z,24.78
2023-05-13T13:37:59.119Z,24.87
2023-05-13T13:39:04.375Z,24.92
2023-05-13T13:40:08.846Z,25.09
2023-05-13T13:41:12.558Z,25.11
2023-05-13T13:42:16.066Z,25.22
2023-05-13T13:43:20.073Z,25.17
2023-05-13T13:45:28.666Z,25.34
2023-05-13T13:46:32.141Z,25.32
2023-05-13T13:47:35.201Z,25.50
2023-05-13T13:48:39.286Z,25.46
2023-05-13T13:49:42.420Z,25.54
2023-05-13T13:50:47.238Z,25.67
2023-05-13T13:51:50.843Z,25.73
2023-05-13T13:52:54.662Z,25.50
2023-05-13T13:54:00.456Z,25.01
2023-05-13T13:55:03.969Z,25.06
2023-05-13T13:56:07.570Z,25.16
2023-05-13T13:57:12.022Z,25.07
2023-05-13T13:58:17.411Z,25.00
2023-05-13T13:59:20.911Z,25.17
2023-05-13T14:00:25.773Z,25.18